^^
Portofino Weather Station Historical Data
 
Daily Summary for September 06, 2026 Units:  English    Metric   Both
Daily Weekly Monthly Yearly
  Current: High: Low: Average:
Temperature: 79 °F 80.5 °F 72.6 °F 74 °F
Dew Point: 72.6 °F 74.1 °F 70.5 °F 71.6 °F
Humidity: 80.8% 95% 79.2% 92%
Wind Speed: 4.1mph 4.8mph 0mph 1.6mph
Wind Gust: 5.8mph 8.1mph - -
WindNE - - East
Pressure: 29.94 in 29.94 in 29.85 in -
Precipitation: 0.00 in      
 
 
Tabular Data for September 06, 2026
Time Temperature Dew Point Pressure Wind Wind Speed Wind Gust Humidity Rainfall Rate (Hourly)
00:09 73 °F 71.2 °F 29.88 in ENE 0.4 mph 2.3 mph 94% 0.00 in
00:14 73 °F 71.2 °F 29.88 in Calm   2.3 mph 94% 0.00 in
00:19 72.9 °F 71.1 °F 29.87 in ENE 0.4 mph 2.3 mph 94% 0.00 in
00:24 72.7 °F 70.7 °F 29.87 in East 0.5 mph 2.3 mph 93.3% 0.00 in
00:29 72.6 °F 70.5 °F 29.88 in SSE 0.8 mph 2.3 mph 93% 0.00 in
00:34 72.6 °F 70.8 °F 29.88 in SSW 0.6 mph 2.3 mph 94% 0.00 in
00:39 72.6 °F 70.8 °F 29.88 in SSW 0.1 mph 1.2 mph 94% 0.00 in
00:44 72.7 °F 70.9 °F 29.88 in Calm     94% 0.00 in
00:49 72.7 °F 70.9 °F 29.88 in Calm   2.3 mph 94% 0.00 in
00:54 72.8 °F 71 °F 29.88 in SSW 0.1 mph 2.3 mph 94% 0.00 in
00:59 72.9 °F 71.1 °F 29.88 in SSW 0.9 mph 2.3 mph 94% 0.00 in
01:04 72.9 °F 71.1 °F 29.88 in Calm   2.3 mph 94% 0.00 in
01:09 73 °F 71.2 °F 29.88 in SSW 0.1 mph 2.3 mph 94% 0.00 in
01:14 73 °F 71.2 °F 29.88 in Calm     94% 0.00 in
01:19 73 °F 71.2 °F 29.87 in Calm     94% 0.00 in
01:24 73 °F 71.2 °F 29.87 in SSW 0.2 mph 2.3 mph 94% 0.00 in
01:29 73 °F 71.2 °F 29.87 in SSW 0.1 mph 2.3 mph 94% 0.00 in
01:34 73 °F 71.2 °F 29.86 in Calm     94% 0.00 in
01:39 73 °F 71.2 °F 29.86 in Calm   2.3 mph 94% 0.00 in
01:44 73 °F 71.2 °F 29.86 in NE 0.5 mph 1.2 mph 94% 0.00 in
01:49 73.1 °F 71.3 °F 29.86 in NE 0.2 mph 1.2 mph 94% 0.00 in
01:54 73.1 °F 71.3 °F 29.86 in ESE 0.2 mph 2.3 mph 94% 0.00 in
01:59 73.1 °F 71.3 °F 29.86 in ESE 0.1 mph 2.3 mph 94% 0.00 in
02:04 73.1 °F 71.3 °F 29.86 in Calm   1.2 mph 94% 0.00 in
02:09 73.1 °F 71.3 °F 29.86 in ESE 0.1 mph 2.3 mph 94% 0.00 in
02:14 73.1 °F 71.4 °F 29.86 in ESE 0.2 mph 2.3 mph 94.2% 0.00 in
02:19 73.3 °F 71.5 °F 29.85 in ESE 0.1 mph 1.2 mph 94.2% 0.00 in
02:24 73.3 °F 71.7 °F 29.85 in ESE 0.6 mph 2.3 mph 94.7% 0.00 in
02:29 73.4 °F 71.8 °F 29.85 in ESE 0.5 mph 1.2 mph 94.7% 0.00 in
02:34 73.4 °F 71.6 °F 29.85 in Calm   1.2 mph 94% 0.00 in
02:39 73.5 °F 71.7 °F 29.85 in ENE 0.8 mph 2.3 mph 94% 0.00 in
02:44 73.6 °F 72 °F 29.85 in NE 0.8 mph 2.3 mph 94.7% 0.00 in
02:49 73.6 °F 72.1 °F 29.85 in NE 0.5 mph 2.3 mph 95% 0.00 in
02:54 73.7 °F 72.2 °F 29.85 in ENE 0.1 mph 1.2 mph 95% 0.00 in
02:59 73.7 °F 72.2 °F 29.85 in ENE 0.3 mph 2.3 mph 95% 0.00 in
03:04 73.7 °F 72.2 °F 29.85 in NNE 1 mph 2.3 mph 95% 0.00 in
03:09 73.8 °F 72.3 °F 29.85 in NE 1.2 mph 4.6 mph 95% 0.00 in
03:14 73.8 °F 72.3 °F 29.85 in NE 1.8 mph 4.6 mph 95% 0.00 in
03:19 73.8 °F 72.3 °F 29.85 in East 2.2 mph 4.6 mph 95% 0.00 in
03:24 73.7 °F 72 °F 29.85 in ENE 2 mph 4.6 mph 94.2% 0.00 in
03:29 73.7 °F 72.2 °F 29.85 in NE 1.9 mph 5.8 mph 94.9% 0.00 in
03:34 73.7 °F 72.2 °F 29.85 in ENE 1.4 mph 4.6 mph 95% 0.00 in
03:39 73.7 °F 72.2 °F 29.85 in East 1 mph 2.3 mph 95% 0.00 in
03:44 73.7 °F 72.2 °F 29.85 in East 1.7 mph 3.5 mph 95% 0.00 in
03:49 73.7 °F 72.2 °F 29.85 in ENE 2 mph 3.5 mph 95% 0.00 in
03:54 73.7 °F 72.2 °F 29.85 in ENE 2.7 mph 5.8 mph 95% 0.00 in
03:59 73.7 °F 72.2 °F 29.85 in East 2 mph 4.6 mph 95% 0.00 in
04:04 73.7 °F 72.2 °F 29.85 in ENE 1.8 mph 5.8 mph 95% 0.00 in
04:09 73.7 °F 72.2 °F 29.85 in East 3.1 mph 5.8 mph 95% 0.00 in
04:14 73.7 °F 72.2 °F 29.86 in ENE 2.1 mph 4.6 mph 95% 0.00 in
04:19 73.7 °F 72.2 °F 29.86 in ENE 1.8 mph 6.9 mph 95% 0.00 in
04:24 73.7 °F 72.2 °F 29.86 in NNE 2.1 mph 6.9 mph 95% 0.00 in
04:29 73.6 °F 72.1 °F 29.86 in ENE 1.2 mph 5.8 mph 95% 0.00 in
04:34 73.6 °F 72.1 °F 29.86 in East 2.2 mph 5.8 mph 95% 0.00 in
04:39 73.6 °F 72.1 °F 29.86 in NE 1.7 mph 3.5 mph 95% 0.00 in
04:44 73.5 °F 72 °F 29.87 in NE 1.6 mph 3.5 mph 95% 0.00 in
04:49 73.5 °F 72 °F 29.87 in ENE 1.6 mph 3.5 mph 94.8% 0.00 in
04:54 73.5 °F 71.7 °F 29.87 in ENE 1.6 mph 3.5 mph 94.1% 0.00 in
04:59 73.4 °F 71.6 °F 29.87 in ESE 0.9 mph 3.5 mph 94% 0.00 in
05:04 73.4 °F 71.6 °F 29.87 in East 0.8 mph 2.3 mph 94% 0.00 in
05:09 73.4 °F 71.6 °F 29.87 in East 0.6 mph 3.5 mph 94% 0.00 in
05:14 73.4 °F 71.6 °F 29.88 in ENE 1 mph 3.5 mph 94% 0.00 in
05:19 73.4 °F 71.6 °F 29.88 in NE 0.4 mph 2.3 mph 94% 0.00 in
05:24 73.3 °F 71.5 °F 29.88 in East 1.6 mph 4.6 mph 94% 0.00 in
05:29 73.2 °F 71.4 °F 29.88 in ENE 2.3 mph 4.6 mph 94% 0.00 in
05:34 73.2 °F 71.4 °F 29.88 in ENE 1.3 mph 3.5 mph 94% 0.00 in
05:39 73.2 °F 71.4 °F 29.88 in NE 0.3 mph 2.3 mph 94% 0.00 in
05:44 73.2 °F 71.4 °F 29.88 in NE 0.2 mph 2.3 mph 94% 0.00 in
05:49 73.2 °F 71.4 °F 29.88 in East 1 mph 4.6 mph 94% 0.00 in
05:54 73.1 °F 71.3 °F 29.88 in East 1.6 mph 4.6 mph 94% 0.00 in
05:59 73.1 °F 71.3 °F 29.88 in East 2.4 mph 4.6 mph 94% 0.00 in
06:04 73.1 °F 71.3 °F 29.88 in ENE 1.5 mph 3.5 mph 94% 0.00 in
06:09 73.1 °F 71.3 °F 29.88 in ENE 1.9 mph 6.9 mph 94% 0.00 in
06:14 73 °F 71.2 °F 29.89 in NE 2.3 mph 4.6 mph 94% 0.00 in
06:19 73.1 °F 71.3 °F 29.89 in NE 2.7 mph 8.1 mph 94% 0.00 in
06:24 73 °F 71.1 °F 29.89 in ENE 2 mph 8.1 mph 93.7% 0.00 in
06:29 73 °F 71.2 °F 29.90 in NE 1 mph 2.3 mph 93.8% 0.00 in
06:34 73 °F 71.1 °F 29.90 in NE 1.3 mph 3.5 mph 93.7% 0.00 in
06:39 73 °F 70.9 °F 29.90 in NE 1.9 mph 3.5 mph 93.1% 0.00 in
06:44 72.9 °F 70.8 °F 29.90 in NE 2.6 mph 5.8 mph 93% 0.00 in
06:49 72.9 °F 70.8 °F 29.90 in ENE 2.6 mph 4.6 mph 93% 0.00 in
06:54 72.8 °F 70.7 °F 29.90 in ENE 2.2 mph 4.6 mph 93% 0.00 in
06:59 72.8 °F 70.7 °F 29.90 in ENE 2 mph 3.5 mph 93% 0.00 in
07:04 72.7 °F 70.6 °F 29.90 in ENE 2.3 mph 4.6 mph 93% 0.00 in
07:09 72.7 °F 70.6 °F 29.90 in NE 2.1 mph 5.8 mph 93% 0.00 in
07:14 72.8 °F 70.7 °F 29.91 in NE 1 mph 3.5 mph 93% 0.00 in
07:19 72.8 °F 70.7 °F 29.91 in East 1.6 mph 4.6 mph 93% 0.00 in
07:24 72.8 °F 70.7 °F 29.91 in ENE 2.2 mph 4.6 mph 93% 0.00 in
07:29 72.9 °F 70.8 °F 29.91 in ENE 2.1 mph 4.6 mph 93% 0.00 in
07:34 72.9 °F 70.8 °F 29.91 in ENE 1.3 mph 3.5 mph 93% 0.00 in
07:39 73 °F 70.9 °F 29.91 in ENE 2.6 mph 6.9 mph 93% 0.00 in
07:44 73.1 °F 71 °F 29.91 in East 1 mph 3.5 mph 93% 0.00 in
07:49 73.2 °F 71.1 °F 29.91 in East 1.1 mph 3.5 mph 93% 0.00 in
07:54 73.3 °F 71.2 °F 29.91 in ENE 1.7 mph 3.5 mph 93% 0.00 in
07:59 73.4 °F 71.3 °F 29.92 in East 2.7 mph 6.9 mph 92.8% 0.00 in
08:04 73.6 °F 71.2 °F 29.92 in ENE 2.1 mph 4.6 mph 92.4% 0.00 in
08:09 73.7 °F 71.3 °F 29.92 in ENE 1.7 mph 3.5 mph 92.2% 0.00 in
08:14 74 °F 71.5 °F 29.93 in ENE 1.2 mph 3.5 mph 92% 0.00 in
08:19 74.2 °F 71.7 °F 29.93 in East 2.2 mph 4.6 mph 92% 0.00 in
08:24 74.5 °F 71.7 °F 29.93 in East 2.3 mph 5.8 mph 91% 0.00 in
08:29 74.7 °F 71.7 °F 29.93 in East 3.2 mph 4.6 mph 90.3% 0.00 in
08:34 74.8 °F 71.7 °F 29.93 in East 3 mph 4.6 mph 90% 0.00 in
08:39 75 °F 71.9 °F 29.93 in ENE 2.7 mph 5.8 mph 90% 0.00 in
08:44 75.2 °F 71.9 °F 29.94 in NE 2.4 mph 5.8 mph 89.5% 0.00 in
08:49 75.6 °F 72.1 °F 29.94 in ENE 2.9 mph 5.8 mph 89% 0.00 in
08:54 75.7 °F 71.9 °F 29.94 in ENE 4 mph 5.8 mph 88% 0.00 in
08:59 75.6 °F 71.7 °F 29.94 in ENE 2.6 mph 5.8 mph 87.8% 0.00 in
09:04 75.5 °F 71.7 °F 29.94 in East 2.9 mph 6.9 mph 87.8% 0.00 in
09:09 75.5 °F 71.7 °F 29.94 in East 2.5 mph 6.9 mph 87.8% 0.00 in
09:14 75.8 °F 71.8 °F 29.94 in East 2.7 mph 5.8 mph 87.6% 0.00 in
09:19 76.1 °F 72 °F 29.94 in East 3 mph 6.9 mph 87.3% 0.00 in
09:24 76.4 °F 72.2 °F 29.94 in ENE 3.6 mph 5.8 mph 86.9% 0.00 in
09:29 76.5 °F 72.1 °F 29.94 in ENE 2.8 mph 6.9 mph 86.4% 0.00 in
09:34 76.7 °F 72.3 °F 29.93 in East 2.9 mph 5.8 mph 86.2% 0.00 in
09:39 77.7 °F 73 °F 29.93 in NE 2.8 mph 6.9 mph 85.5% 0.00 in
09:44 78.9 °F 73.4 °F 29.93 in NE 2.4 mph 4.6 mph 83.4% 0.00 in
09:49 79.5 °F 73.6 °F 29.93 in ESE 3.1 mph 6.9 mph 82.2% 0.00 in
09:54 79.6 °F 73.5 °F 29.93 in SE 4.8 mph 8.1 mph 81.5% 0.00 in
09:59 80.2 °F 74.1 °F 29.93 in ENE 3.8 mph 6.9 mph 81.6% 0.00 in
10:04 80.5 °F 73.9 °F 29.93 in NNE 2.7 mph 5.8 mph 80.3% 0.00 in
10:09 80.4 °F 73.4 °F 29.93 in NNE 4.2 mph 6.9 mph 79.2% 0.00 in
10:14 79.6 °F 72.7 °F 29.94 in NE 4 mph 8.1 mph 79.7% 0.00 in
10:19 79 °F 72.6 °F 29.94 in NE 4.1 mph 5.8 mph 80.8% 0.00 in
Clayton, NC Weather
Compliments of Weather Underground - 4 mb

Free counters!